Aviation Digital Data Service (ADDS)

Output produced by METARs form (0727 UTC 06 March 2015)
found at http://aviationweather.gov/adds/metars/
 
KYNG 060539Z 0606/0706 VRB03KT P6SM SKC 
     FM061600 22008KT P6SM SCT120 BKN200 
     FM070100 20008KT P6SM BKN070 OVC120